| time (UTC) | temp F | wind direction | speed knots | gust knots | rain 1hr in | rain 24hr in | rain mn in | humidity % | barometer mb |
| 20260507030002 | 57 | 285 | 1.7 | 6.1 | 0.00 | 0.00 | 0.00 | 79 | 1022.1 |
| 20260507025503 | 57 | 265 | 1.7 | 7.8 | 0.00 | 0.00 | 0.00 | 79 | 1022.1 |
| 20260507025002 | 57 | 266 | 1.7 | 8.7 | 0.00 | 0.00 | 0.00 | 79 | 1022.1 |
| 20260507024502 | 57 | 283 | 3.5 | 8.7 | 0.00 | 0.00 | 0.00 | 79 | 1022.1 |
| 20260507024003 | 57 | 284 | 2.6 | 7.8 | 0.00 | 0.00 | 0.00 | 79 | 1022.1 |
| 20260507023502 | 57 | 267 | 2.6 | 10.4 | 0.00 | 0.00 | 0.00 | 79 | 1021.9 |
| 20260507023002 | 57 | 302 | 4.3 | 11.3 | 0.00 | 0.00 | 0.00 | 78 | 1021.9 |
| 20260507022503 | 57 | 288 | 2.6 | 11.3 | 0.00 | 0.00 | 0.00 | 78 | 1021.9 |
| 20260507022002 | 58 | 299 | 3.5 | 8.7 | 0.00 | 0.00 | 0.00 | 78 | 1021.7 |
| 20260507021502 | 58 | 298 | 4.3 | 9.6 | 0.00 | 0.00 | 0.00 | 77 | 1021.9 |
| 20260507021003 | 58 | 275 | 1.7 | 9.6 | 0.00 | 0.00 | 0.00 | 78 | 1021.8 |
| 20260507020502 | 58 | 292 | 2.6 | 7.8 | 0.00 | 0.00 | 0.00 | 78 | 1021.8 |
| 20260507020002 | 58 | 286 | 3.5 | 8.7 | 0.00 | 0.00 | 0.00 | 78 | 1021.7 |
| 20260507015503 | 58 | 307 | 3.5 | 8.7 | 0.00 | 0.00 | 0.00 | 78 | 1021.8 |
| 20260507015002 | 58 | 298 | 3.5 | 8.7 | 0.00 | 0.00 | 0.00 | 78 | 1021.8 |
| 20260507014502 | 59 | 293 | 1.7 | 8.7 | 0.00 | 0.00 | 0.00 | 77 | 1021.8 |
| 20260507014003 | 59 | 315 | 4.3 | 7.8 | 0.00 | 0.00 | 0.00 | 77 | 1021.8 |
| 20260507013502 | 59 | 298 | 3.5 | 7.8 | 0.00 | 0.00 | 0.00 | 76 | 1021.8 |
| 20260507013003 | 59 | 289 | 3.5 | 7.8 | 0.00 | 0.00 | 0.00 | 77 | 1021.7 |
| 20260507012503 | 59 | 286 | 3.5 | 10.4 | 0.00 | 0.00 | 0.00 | 76 | 1021.8 |
| 20260507012002 | 60 | 322 | 3.5 | 10.4 | 0.00 | 0.00 | 0.00 | 77 | 1021.8 |
| 20260507011503 | 60 | 291 | 3.5 | 10.4 | 0.00 | 0.00 | 0.00 | 76 | 1021.9 |
| 20260507011003 | 60 | 296 | 3.5 | 10.4 | 0.00 | 0.00 | 0.00 | 75 | 1021.9 |
| 20260507010502 | 60 | 311 | 5.2 | 10.4 | 0.00 | 0.00 | 0.00 | 76 | 1021.9 |
| 20260507010003 | 59 | 285 | 2.6 | 7.8 | 0.00 | 0.00 | 0.00 | 76 | 1022.0 |
| 20260507005503 | 59 | 307 | 3.5 | 9.6 | 0.00 | 0.00 | 0.00 | 77 | 1022.0 |
| 20260507005002 | 59 | 307 | 3.5 | 9.6 | 0.00 | 0.00 | 0.00 | 76 | 1022.0 |
| 20260507004503 | 60 | 329 | 3.5 | 11.3 | 0.00 | 0.00 | 0.00 | 76 | 1022.0 |
| 20260507004003 | 60 | 297 | 5.2 | 11.3 | 0.00 | 0.00 | 0.00 | 74 | 1022.0 |
| 20260507003502 | 60 | 283 | 3.5 | 10.4 | 0.00 | 0.00 | 0.00 | 75 | 1022.0 |
| 20260507003003 | 60 | 244 | 2.6 | 8.7 | 0.00 | 0.00 | 0.00 | 75 | 1022.1 |
| 20260507002503 | 60 | 295 | 4.3 | 8.7 | 0.00 | 0.00 | 0.00 | 75 | 1022.1 |
| 20260507002002 | 60 | 291 | 3.5 | 8.7 | 0.00 | 0.00 | 0.00 | 75 | 1022.1 |
| 20260507001503 | 60 | 309 | 4.3 | 8.7 | 0.00 | 0.00 | 0.00 | 76 | 1022.1 |
| 20260507001003 | 60 | 288 | 3.5 | 8.7 | 0.00 | 0.00 | 0.00 | 76 | 1022.0 |
| 20260507000502 | 61 | 300 | 4.3 | 11.3 | 0.00 | 0.00 | 0.00 | 75 | 1021.9 |
| 20260507000003 | 61 | 287 | 5.2 | 11.3 | 0.00 | 0.00 | 0.00 | 74 | 1022.0 |
| 20260506235503 | 61 | 293 | 2.6 | 7.8 | 0.00 | 0.00 | 0.00 | 76 | 1022.0 |
| 20260506235002 | 61 | 302 | 3.5 | 9.6 | 0.00 | 0.00 | 0.00 | 76 | 1022.0 |
| 20260506234503 | 61 | 286 | 2.6 | 9.6 | 0.00 | 0.00 | 0.00 | 75 | 1021.9 |
| 20260506234003 | 61 | 274 | 3.5 | 9.6 | 0.00 | 0.00 | 0.00 | 74 | 1021.9 |
| 20260506233502 | 61 | 285 | 4.3 | 9.6 | 0.00 | 0.00 | 0.00 | 75 | 1021.8 |
| 20260506233003 | 61 | 327 | 4.3 | 9.6 | 0.00 | 0.00 | 0.00 | 76 | 1021.8 |
| 20260506232503 | 61 | 301 | 3.5 | 9.6 | 0.00 | 0.00 | 0.00 | 76 | 1021.8 |
| 20260506232002 | 61 | 301 | 3.5 | 9.6 | 0.00 | 0.00 | 0.00 | 75 | 1021.8 |
| 20260506231503 | 61 | 330 | 5.2 | 9.6 | 0.00 | 0.00 | 0.00 | 76 | 1021.8 |
| 20260506231003 | 61 | 298 | 2.6 | 9.6 | 0.00 | 0.00 | 0.00 | 77 | 1022.0 |
| 20260506230502 | 61 | 307 | 3.5 | 8.7 | 0.00 | 0.00 | 0.00 | 76 | 1021.9 |
| 20260506230003 | 61 | 295 | 0.9 | 7.8 | 0.00 | 0.00 | 0.00 | 77 | 1022.0 |
| 20260506225503 | 61 | 248 | 2.6 | 7.8 | 0.00 | 0.00 | 0.00 | 75 | 1022.0 |
| 20260506225002 | 61 | 278 | 2.6 | 7.8 | 0.00 | 0.00 | 0.00 | 76 | 1021.9 |
| 20260506224503 | 61 | 306 | 2.6 | 11.3 | 0.00 | 0.00 | 0.00 | 77 | 1022.0 |
| 20260506224003 | 61 | 285 | 4.3 | 11.3 | 0.00 | 0.00 | 0.00 | 76 | 1022.0 |
| 20260506223502 | 61 | 304 | 3.5 | 9.6 | 0.00 | 0.00 | 0.00 | 76 | 1022.0 |
| 20260506223003 | 61 | 311 | 5.2 | 9.6 | 0.00 | 0.00 | 0.00 | 74 | 1022.1 |
| 20260506222503 | 62 | 292 | 5.2 | 8.7 | 0.00 | 0.00 | 0.00 | 73 | 1022.1 |
| 20260506222002 | 62 | 295 | 2.6 | 8.7 | 0.00 | 0.00 | 0.00 | 74 | 1022.1 |
| 20260506221503 | 62 | 294 | 3.5 | 8.7 | 0.00 | 0.00 | 0.00 | 74 | 1022.1 |
| 20260506221002 | 62 | 293 | 2.6 | 9.6 | 0.00 | 0.00 | 0.00 | 75 | 1022.2 |
| 20260506220502 | 62 | 299 | 5.2 | 9.6 | 0.00 | 0.00 | 0.00 | 74 | 1022.1 |
| 20260506220003 | 62 | 313 | 4.3 | 8.7 | 0.00 | 0.00 | 0.00 | 75 | 1022.2 |
| 20260506215502 | 62 | 308 | 2.6 | 8.7 | 0.00 | 0.00 | 0.00 | 75 | 1022.1 |
| 20260506215002 | 62 | 331 | 5.2 | 8.7 | 0.00 | 0.00 | 0.00 | 74 | 1022.1 |
| 20260506214503 | 62 | 325 | 4.3 | 8.7 | 0.00 | 0.00 | 0.00 | 74 | 1022.1 |
| 20260506214002 | 62 | 278 | 1.7 | 8.7 | 0.00 | 0.00 | 0.00 | 75 | 1022.1 |
| 20260506213502 | 62 | 294 | 3.5 | 8.7 | 0.00 | 0.00 | 0.00 | 76 | 1022.1 |
| 20260506213003 | 62 | 315 | 4.3 | 8.7 | 0.00 | 0.00 | 0.00 | 75 | 1022.1 |
| 20260506212502 | 62 | 337 | 5.2 | 8.7 | 0.00 | 0.00 | 0.00 | 75 | 1022.1 |
| 20260506212002 | 62 | 323 | 5.2 | 8.7 | 0.00 | 0.00 | 0.00 | 74 | 1022.1 |
| 20260506211503 | 62 | 316 | 4.3 | 8.7 | 0.00 | 0.00 | 0.00 | 74 | 1022.1 |
| 20260506211002 | 62 | 311 | 3.5 | 8.7 | 0.00 | 0.00 | 0.00 | 75 | 1022.1 |
| 20260506210502 | 62 | 304 | 2.6 | 9.6 | 0.00 | 0.00 | 0.00 | 75 | 1022.0 |
| 20260506210003 | 62 | 329 | 5.2 | 9.6 | 0.00 | 0.00 | 0.00 | 74 | 1022.1 |
| 20260506205502 | 62 | 286 | 2.6 | 7.8 | 0.00 | 0.00 | 0.00 | 75 | 1022.0 |
| 20260506205002 | 62 | 279 | 1.7 | 7.8 | 0.00 | 0.00 | 0.00 | 76 | 1022.0 |
| 20260506204503 | 62 | 294 | 2.6 | 7.8 | 0.00 | 0.00 | 0.00 | 75 | 1022.0 |
| 20260506204002 | 62 | 299 | 3.5 | 7.8 | 0.00 | 0.00 | 0.00 | 76 | 1022.0 |
| 20260506203502 | 62 | 328 | 4.3 | 7.8 | 0.00 | 0.00 | 0.00 | 75 | 1022.0 |
| 20260506203003 | 61 | 292 | 3.5 | 9.6 | 0.00 | 0.00 | 0.00 | 76 | 1022.0 |
| 20260506202502 | 61 | 331 | 5.2 | 9.6 | 0.00 | 0.00 | 0.00 | 75 | 1022.0 |
| 20260506202002 | 61 | 328 | 4.3 | 8.7 | 0.00 | 0.00 | 0.00 | 75 | 1022.0 |
| 20260506201503 | 62 | 319 | 3.5 | 8.7 | 0.00 | 0.00 | 0.00 | 77 | 1022.1 |
| 20260506201002 | 61 | 277 | 1.7 | 8.7 | 0.00 | 0.00 | 0.00 | 78 | 1022.1 |
| 20260506200503 | 61 | 292 | 2.6 | 7.0 | 0.00 | 0.00 | 0.00 | 77 | 1022.0 |
| 20260506200003 | 60 | 297 | 2.6 | 7.8 | 0.00 | 0.00 | 0.00 | 78 | 1022.1 |
| 20260506195502 | 60 | 310 | 1.7 | 7.8 | 0.00 | 0.00 | 0.00 | 78 | 1022.1 |
| 20260506195003 | 60 | 324 | 2.6 | 7.8 | 0.00 | 0.00 | 0.00 | 79 | 1022.1 |
| 20260506194503 | 60 | 315 | 1.7 | 7.8 | 0.00 | 0.00 | 0.00 | 78 | 1022.0 |
| 20260506194002 | 60 | 302 | 1.7 | 5.2 | 0.00 | 0.00 | 0.00 | 78 | 1022.1 |
| 20260506193503 | 60 | 291 | 1.7 | 7.0 | 0.00 | 0.00 | 0.00 | 77 | 1022.1 |
| 20260506193003 | 60 | 290 | 2.6 | 8.7 | 0.00 | 0.00 | 0.00 | 79 | 1022.0 |
| 20260506192502 | 59 | 281 | 2.6 | 8.7 | 0.00 | 0.00 | 0.00 | 78 | 1022.1 |
| 20260506192003 | 59 | 319 | 2.6 | 7.0 | 0.00 | 0.00 | 0.00 | 78 | 1022.1 |
| 20260506191503 | 59 | 322 | 3.5 | 7.0 | 0.00 | 0.00 | 0.00 | 77 | 1022.0 |
| 20260506191002 | 60 | 322 | 3.5 | 7.0 | 0.00 | 0.00 | 0.00 | 77 | 1021.9 |
| 20260506190503 | 60 | 305 | 2.6 | 6.1 | 0.00 | 0.00 | 0.00 | 77 | 1021.9 |
| 20260506190003 | 59 | 316 | 1.7 | 6.1 | 0.00 | 0.00 | 0.00 | 77 | 1021.9 |
| 20260506185502 | 59 | 304 | 2.6 | 7.8 | 0.00 | 0.00 | 0.00 | 76 | 1021.8 |
| 20260506185003 | 59 | 288 | 1.7 | 7.8 | 0.00 | 0.00 | 0.00 | 77 | 1022.1 |
| 20260506184503 | 59 | 296 | 3.5 | 7.8 | 0.00 | 0.00 | 0.00 | 77 | 1022.0 |
| 20260506184002 | 60 | 282 | 1.7 | 5.2 | 0.00 | 0.00 | 0.00 | 77 | 1022.0 |
| 20260506183503 | 59 | 327 | 0.9 | 7.0 | 0.00 | 0.00 | 0.00 | 78 | 1022.0 |
| 20260506183003 | 59 | 315 | 3.5 | 7.0 | 0.00 | 0.00 | 0.00 | 76 | 1021.9 |
| 20260506182502 | 60 | 295 | 1.7 | 7.0 | 0.00 | 0.00 | 0.00 | 77 | 1021.9 |
| 20260506182003 | 59 | 318 | 2.6 | 7.0 | 0.00 | 0.00 | 0.00 | 79 | 1021.9 |
| 20260506181502 | 59 | 305 | 1.7 | 5.2 | 0.00 | 0.00 | 0.00 | 78 | 1021.9 |
| 20260506181003 | 59 | 292 | 1.7 | 7.0 | 0.00 | 0.00 | 0.00 | 79 | 1021.9 |
| 20260506180503 | 58 | 312 | 1.7 | 7.0 | 0.00 | 0.00 | 0.00 | 79 | 1021.8 |
| 20260506180003 | 58 | 266 | 0.9 | 7.0 | 0.00 | 0.00 | 0.00 | 79 | 1021.9 |
| 20260506175503 | 58 | 301 | 1.7 | 7.0 | 0.00 | 0.00 | 0.00 | 80 | 1021.9 |
| 20260506175003 | 58 | 324 | 0.9 | 5.2 | 0.00 | 0.00 | 0.00 | 80 | 1021.9 |
| 20260506174502 | 58 | 324 | 1.7 | 5.2 | 0.00 | 0.00 | 0.00 | 80 | 1021.9 |
| 20260506174003 | 58 | 321 | 2.6 | 6.1 | 0.00 | 0.00 | 0.00 | 80 | 1021.8 |
| 20260506173503 | 58 | 309 | 2.6 | 6.1 | 0.00 | 0.00 | 0.00 | 80 | 1021.8 |
| 20260506173002 | 58 | 288 | 1.7 | 4.3 | 0.00 | 0.00 | 0.00 | 80 | 1021.8 |
| 20260506172503 | 58 | 318 | 1.7 | 3.5 | 0.00 | 0.00 | 0.00 | 81 | 1021.7 |
| 20260506172003 | 58 | 297 | 0.9 | 3.5 | 0.00 | 0.00 | 0.00 | 80 | 1021.7 |
| 20260506171502 | 58 | 231 | 0.9 | 2.6 | 0.00 | 0.00 | 0.00 | 81 | 1021.5 |
| 20260506171003 | 58 | 96 | 0.9 | 1.7 | 0.00 | 0.00 | 0.00 | 82 | 1021.6 |
| 20260506170502 | 58 | 249 | 0.9 | 1.7 | 0.00 | 0.00 | 0.00 | 82 | 1021.5 |
| 20260506170003 | 58 | 153 | 0.9 | 1.7 | 0.00 | 0.00 | 0.00 | 81 | 1021.5 |
| 20260506165502 | 58 | 251 | 0.9 | 1.7 | 0.00 | 0.00 | 0.00 | 81 | 1021.6 |
| 20260506165002 | 58 | 200 | 0.9 | 2.6 | 0.00 | 0.00 | 0.00 | 81 | 1021.6 |
| 20260506164503 | 57 | 237 | 0.9 | 2.6 | 0.00 | 0.00 | 0.00 | 80 | 1021.5 |
| 20260506164002 | 57 | 240 | 0.9 | 2.6 | 0.00 | 0.00 | 0.00 | 81 | 1021.5 |
| 20260506163502 | 57 | 217 | 0.9 | 1.7 | 0.00 | 0.00 | 0.00 | 81 | 1021.5 |
| 20260506163003 | 57 | 244 | 0.9 | 2.6 | 0.00 | 0.00 | 0.00 | 82 | 1021.4 |
| 20260506162502 | 57 | 284 | 0.9 | 3.5 | 0.00 | 0.00 | 0.00 | 81 | 1021.4 |
| 20260506162002 | 57 | 254 | 0.9 | 4.3 | 0.00 | 0.00 | 0.00 | 81 | 1021.5 |
| 20260506161503 | 57 | 330 | 1.7 | 7.0 | 0.00 | 0.00 | 0.00 | 81 | 1021.5 |
| 20260506161002 | 57 | 330 | 2.6 | 7.0 | 0.00 | 0.00 | 0.00 | 81 | 1021.6 |
| 20260506160503 | 57 | 302 | 1.7 | 4.3 | 0.00 | 0.00 | 0.00 | 81 | 1021.5 |
| 20260506160003 | 57 | 292 | 2.6 | 4.3 | 0.00 | 0.00 | 0.00 | 81 | 1021.6 |
| 20260506155502 | 57 | 294 | 0.9 | 4.3 | 0.00 | 0.00 | 0.00 | 82 | 1021.5 |
| 20260506155003 | 57 | 302 | 0.9 | 4.3 | 0.00 | 0.00 | 0.00 | 82 | 1021.4 |
| 20260506154502 | 57 | 293 | 0.9 | 4.3 | 0.00 | 0.00 | 0.00 | 83 | 1021.3 |
| 20260506154002 | 56 | 315 | 1.7 | 5.2 | 0.00 | 0.00 | 0.00 | 83 | 1021.4 |
| 20260506153503 | 56 | 308 | 2.6 | 5.2 | 0.00 | 0.00 | 0.00 | 83 | 1021.4 |
| 20260506153002 | 56 | 321 | 1.7 | 7.8 | 0.00 | 0.00 | 0.00 | 82 | 1021.4 |
| 20260506152502 | 56 | 318 | 1.7 | 7.8 | 0.00 | 0.00 | 0.00 | 82 | 1021.2 |
| 20260506152003 | 56 | 317 | 2.6 | 5.2 | 0.00 | 0.00 | 0.00 | 82 | 1021.3 |
| 20260506151502 | 56 | 312 | 2.6 | 4.3 | 0.00 | 0.00 | 0.00 | 83 | 1021.3 |
| 20260506151002 | 56 | 245 | 0.9 | 2.6 | 0.00 | 0.00 | 0.00 | 83 | 1021.0 |
| 20260506150503 | 56 | 269 | 1.7 | 3.5 | 0.00 | 0.00 | 0.00 | 83 | 1021.0 |
| 20260506150002 | 56 | 227 | 0.0 | 3.5 | 0.00 | 0.00 | 0.00 | 83 | 1020.9 |
| 20260506145503 | 56 | 271 | 0.9 | 2.6 | 0.00 | 0.00 | 0.00 | 84 | 1020.8 |
| 20260506145003 | 56 | 272 | 0.9 | 2.6 | 0.00 | 0.00 | 0.00 | 84 | 1020.6 |
| 20260506144502 | 55 | 240 | 0.9 | 1.7 | 0.00 | 0.00 | 0.00 | 85 | 1020.7 |
| 20260506144002 | 55 | 257 | 0.0 | 1.7 | 0.00 | 0.00 | 0.00 | 86 | 1020.8 |
| 20260506143503 | 55 | 259 | 0.0 | 1.7 | 0.00 | 0.00 | 0.00 | 86 | 1020.8 |
| 20260506143002 | 55 | 263 | 0.0 | 1.7 | 0.00 | 0.00 | 0.00 | 87 | 1020.9 |
| 20260506142503 | 55 | 258 | 0.9 | 1.7 | 0.00 | 0.00 | 0.00 | 87 | 1021.2 |
| 20260506142003 | 55 | 249 | 0.0 | 1.7 | 0.00 | 0.00 | 0.00 | 86 | 1021.1 |
| 20260506141502 | 55 | 279 | 0.0 | 2.6 | 0.00 | 0.00 | 0.00 | 87 | 1021.0 |
| 20260506141002 | 55 | 274 | 0.9 | 2.6 | 0.00 | 0.00 | 0.00 | 87 | 1021.1 |
| 20260506140503 | 55 | 309 | 0.0 | 3.5 | 0.00 | 0.00 | 0.00 | 87 | 1021.1 |
| 20260506140002 | 55 | 282 | 0.9 | 3.5 | 0.00 | 0.00 | 0.00 | 86 | 1021.0 |
| 20260506135503 | 55 | 297 | 1.7 | 3.5 | 0.00 | 0.00 | 0.00 | 87 | 1020.9 |
| 20260506135003 | 55 | 228 | 0.0 | 1.7 | 0.00 | 0.00 | 0.00 | 87 | 1020.9 |
| 20260506134502 | 55 | 271 | 0.0 | 2.6 | 0.00 | 0.00 | 0.00 | 87 | 1020.9 |
| 20260506134002 | 55 | 271 | 0.0 | 2.6 | 0.00 | 0.00 | 0.00 | 87 | 1020.8 |
| 20260506133503 | 55 | 255 | 0.9 | 2.6 | 0.00 | 0.00 | 0.00 | 88 | 1020.8 |
| 20260506133002 | 54 | 256 | 0.0 | 2.6 | 0.00 | 0.00 | 0.00 | 88 | 1020.7 |
| 20260506132502 | 55 | 267 | 0.9 | 2.6 | 0.00 | 0.00 | 0.00 | 88 | 1020.6 |
| 20260506132003 | 55 | 273 | 0.0 | 1.7 | 0.00 | 0.00 | 0.00 | 88 | 1020.5 |
| 20260506131502 | 55 | 278 | 0.0 | 1.7 | 0.00 | 0.00 | 0.00 | 88 | 1020.3 |
| 20260506131003 | 55 | 275 | 0.0 | 0.9 | 0.00 | 0.00 | 0.00 | 88 | 1020.4 |
| 20260506130503 | 55 | 275 | 0.0 | 1.7 | 0.00 | 0.00 | 0.00 | 88 | 1020.5 |
| 20260506130002 | 55 | 273 | 0.9 | 1.7 | 0.00 | 0.00 | 0.00 | 88 | 1020.4 |
| 20260506125503 | 55 | 231 | 0.0 | 1.7 | 0.00 | 0.00 | 0.00 | 88 | 1020.3 |
| 20260506125002 | 55 | 226 | 0.0 | 1.7 | 0.00 | 0.00 | 0.00 | 88 | 1020.2 |
| 20260506124502 | 55 | 225 | 0.0 | 2.6 | 0.00 | 0.00 | 0.00 | 88 | 1020.1 |
| 20260506124003 | 55 | 231 | 0.9 | 3.5 | 0.00 | 0.00 | 0.00 | 88 | 1020.2 |
| 20260506123503 | 55 | 256 | 0.9 | 3.5 | 0.00 | 0.00 | 0.00 | 88 | 1020.1 |
| 20260506123002 | 55 | 208 | 0.9 | 2.6 | 0.00 | 0.00 | 0.00 | 88 | 1020.1 |
| 20260506122503 | 55 | 200 | 0.9 | 2.6 | 0.00 | 0.00 | 0.00 | 88 | 1020.0 |
| 20260506122003 | 55 | 301 | 0.9 | 2.6 | 0.00 | 0.00 | 0.00 | 88 | 1020.1 |
| 20260506121502 | 55 | 266 | 0.9 | 2.6 | 0.00 | 0.00 | 0.00 | 88 | 1020.0 |
| 20260506121003 | 55 | 196 | 0.0 | 2.6 | 0.00 | 0.00 | 0.00 | 88 | 1020.0 |
| 20260506120503 | 55 | 197 | 0.9 | 2.6 | 0.00 | 0.00 | 0.00 | 88 | 1020.0 |
| 20260506120002 | 55 | 201 | 0.0 | 1.7 | 0.00 | 0.00 | 0.00 | 88 | 1020.0 |
| 20260506115503 | 55 | 201 | 0.0 | 1.7 | 0.00 | 0.00 | 0.00 | 88 | 1020.0 |
| 20260506115002 | 55 | 225 | 0.0 | 1.7 | 0.00 | 0.00 | 0.00 | 88 | 1020.0 |
| 20260506114502 | 55 | 220 | 0.9 | 1.7 | 0.00 | 0.00 | 0.00 | 88 | 1020.0 |
| 20260506114003 | 55 | 218 | 0.9 | 1.7 | 0.00 | 0.00 | 0.00 | 88 | 1019.9 |
| 20260506113502 | 55 | 218 | 0.0 | 1.7 | 0.00 | 0.00 | 0.00 | 88 | 1019.9 |
| 20260506113002 | 55 | 232 | 0.0 | 1.7 | 0.00 | 0.00 | 0.00 | 88 | 1019.9 |
| 20260506112503 | 55 | 271 | 0.0 | 1.7 | 0.00 | 0.00 | 0.00 | 88 | 1019.9 |
| 20260506112002 | 55 | 265 | 0.0 | 2.6 | 0.00 | 0.00 | 0.00 | 88 | 1020.0 |
| 20260506111502 | 55 | 246 | 0.0 | 2.6 | 0.00 | 0.00 | 0.00 | 88 | 1019.9 |
| 20260506111003 | 55 | 281 | 0.9 | 1.7 | 0.00 | 0.00 | 0.00 | 87 | 1020.0 |
| 20260506110502 | 55 | 272 | 0.0 | 1.7 | 0.00 | 0.00 | 0.00 | 87 | 1019.9 |
| 20260506110002 | 55 | 271 | 0.0 | 1.7 | 0.00 | 0.00 | 0.00 | 87 | 1019.9 |
| 20260506105503 | 55 | 272 | 0.0 | 1.7 | 0.00 | 0.00 | 0.00 | 87 | 1019.8 |
| 20260506105002 | 55 | 255 | 0.0 | 1.7 | 0.00 | 0.00 | 0.00 | 87 | 1019.7 |
| 20260506104503 | 55 | 246 | 0.0 | 1.7 | 0.00 | 0.00 | 0.00 | 87 | 1019.7 |
| 20260506104003 | 55 | 246 | 0.0 | 1.7 | 0.00 | 0.00 | 0.00 | 87 | 1019.6 |
| 20260506103502 | 55 | 246 | 0.0 | 2.6 | 0.00 | 0.00 | 0.00 | 87 | 1019.6 |
| 20260506103003 | 55 | 272 | 0.9 | 2.6 | 0.00 | 0.00 | 0.00 | 87 | 1019.5 |
| 20260506102503 | 55 | 264 | 0.0 | 1.7 | 0.00 | 0.00 | 0.00 | 87 | 1019.4 |
| 20260506102002 | 55 | 317 | 0.0 | 3.5 | 0.00 | 0.00 | 0.00 | 87 | 1019.5 |
| 20260506101503 | 56 | 318 | 1.7 | 3.5 | 0.00 | 0.00 | 0.00 | 87 | 1019.4 |
| 20260506101003 | 55 | 283 | 0.9 | 2.6 | 0.00 | 0.00 | 0.00 | 87 | 1019.4 |
| 20260506100502 | 56 | 241 | 0.9 | 2.6 | 0.00 | 0.00 | 0.00 | 87 | 1019.3 |
| 20260506100003 | 56 | 211 | 0.9 | 1.7 | 0.00 | 0.00 | 0.00 | 87 | 1019.2 |
| 20260506095503 | 56 | 202 | 0.0 | 1.7 | 0.00 | 0.00 | 0.00 | 87 | 1019.2 |
| 20260506095002 | 56 | 249 | 0.9 | 2.6 | 0.00 | 0.00 | 0.00 | 87 | 1019.1 |
| 20260506094503 | 56 | 254 | 0.9 | 2.6 | 0.00 | 0.00 | 0.00 | 87 | 1019.1 |
| 20260506094002 | 56 | 239 | 0.9 | 5.2 | 0.00 | 0.00 | 0.00 | 87 | 1019.0 |
| 20260506093502 | 56 | 297 | 2.6 | 6.1 | 0.00 | 0.00 | 0.00 | 87 | 1019.0 |
| 20260506093003 | 56 | 294 | 2.6 | 6.1 | 0.00 | 0.00 | 0.00 | 87 | 1019.0 |
| 20260506092502 | 56 | 292 | 1.7 | 3.5 | 0.00 | 0.00 | 0.00 | 87 | 1019.0 |
| 20260506092002 | 56 | 300 | 0.0 | 3.5 | 0.00 | 0.00 | 0.00 | 87 | 1018.9 |
| 20260506091503 | 56 | 295 | 0.9 | 3.5 | 0.00 | 0.00 | 0.00 | 87 | 1018.8 |
| 20260506091002 | 56 | 313 | 1.7 | 5.2 | 0.00 | 0.00 | 0.00 | 87 | 1018.8 |
| 20260506090502 | 56 | 321 | 2.6 | 5.2 | 0.00 | 0.00 | 0.00 | 87 | 1018.8 |
| 20260506090003 | 56 | 296 | 1.7 | 3.5 | 0.00 | 0.00 | 0.00 | 87 | 1018.7 |
| 20260506085502 | 56 | 253 | 0.9 | 3.5 | 0.00 | 0.00 | 0.00 | 87 | 1018.8 |
| 20260506085003 | 56 | 279 | 0.9 | 2.6 | 0.00 | 0.00 | 0.00 | 87 | 1018.9 |
| 20260506084503 | 56 | 315 | 0.0 | 2.6 | 0.00 | 0.00 | 0.00 | 88 | 1018.8 |
| 20260506084002 | 56 | 256 | 0.0 | 0.9 | 0.00 | 0.00 | 0.00 | 88 | 1018.8 |
| 20260506083503 | 56 | 256 | 0.0 | 1.7 | 0.00 | 0.00 | 0.00 | 88 | 1018.7 |
| 20260506083003 | 56 | 264 | 0.0 | 1.7 | 0.00 | 0.00 | 0.00 | 88 | 1018.7 |
| 20260506082502 | 56 | 323 | 0.9 | 1.7 | 0.00 | 0.00 | 0.00 | 88 | 1018.7 |
| 20260506082003 | 56 | 325 | 0.0 | 2.6 | 0.00 | 0.00 | 0.00 | 88 | 1018.7 |
| 20260506081503 | 56 | 299 | 1.7 | 2.6 | 0.00 | 0.00 | 0.00 | 88 | 1018.7 |
| 20260506081002 | 56 | 259 | 0.9 | 1.7 | 0.00 | 0.00 | 0.00 | 88 | 1018.6 |
| 20260506080503 | 56 | 261 | 0.9 | 1.7 | 0.00 | 0.00 | 0.00 | 88 | 1018.6 |
| 20260506073503 | 56 | 267 | 0.0 | 1.7 | 0.00 | 0.00 | 0.00 | 87 | 1018.4 |
| 20260506073002 | 56 | 266 | 0.9 | 1.7 | 0.00 | 0.00 | 0.00 | 87 | 1018.3 |
| 20260506072502 | 56 | 258 | 0.0 | 1.7 | 0.00 | 0.00 | 0.00 | 87 | 1018.2 |
| 20260506072003 | 56 | 259 | 0.9 | 4.3 | 0.00 | 0.00 | 0.00 | 87 | 1018.2 |
| 20260506071502 | 56 | 255 | 0.9 | 4.3 | 0.00 | 0.00 | 0.00 | 87 | 1018.1 |
| 20260506071003 | 56 | 254 | 0.0 | 2.6 | 0.00 | 0.00 | 0.00 | 87 | 1018.2 |
| 20260506070503 | 56 | 178 | 0.9 | 2.6 | 0.00 | 0.00 | 0.00 | 87 | 1018.2 |
| 20260506062503 | 56 | 164 | 0.9 | 1.7 | 0.00 | 0.00 | 0.00 | 87 | 1017.8 |
| 20260506062002 | 56 | 164 | 0.0 | 1.7 | 0.00 | 0.00 | 0.00 | 87 | 1017.8 |
| 20260506061503 | 56 | 164 | 0.9 | 1.7 | 0.00 | 0.00 | 0.00 | 87 | 1017.7 |
| 20260506061003 | 56 | 135 | 0.9 | 1.7 | 0.00 | 0.00 | 0.00 | 87 | 1017.8 |
| 20260506060502 | 56 | 271 | 0.9 | 1.7 | 0.00 | 0.00 | 0.00 | 87 | 1017.9 |
| 20260506051003 | 56 | 215 | 0.9 | 7.0 | 0.00 | 0.00 | 0.00 | 85 | 1017.7 |
| 20260506050502 | 56 | 239 | 0.9 | 7.0 | 0.00 | 0.00 | 0.00 | 85 | 1017.7 |
| 20260506045004 | 56 | 190 | 0.9 | 3.5 | 0.00 | 0.00 | 0.00 | 85 | 1017.6 |
| 20260506044502 | 56 | 273 | 0.9 | 3.5 | 0.00 | 0.00 | 0.00 | 85 | 1017.6 |
| 20260506044002 | 56 | 210 | 1.7 | 5.2 | 0.00 | 0.00 | 0.00 | 85 | 1017.6 |
| 20260506043503 | 56 | 238 | 1.7 | 5.2 | 0.00 | 0.00 | 0.00 | 85 | 1017.5 |
| 20260506043003 | 56 | 285 | 2.6 | 6.1 | 0.00 | 0.00 | 0.00 | 85 | 1017.4 |
| 20260506042502 | 56 | 267 | 1.7 | 7.0 | 0.00 | 0.00 | 0.00 | 85 | 1017.3 |
| 20260506042003 | 56 | 234 | 0.9 | 7.0 | 0.00 | 0.00 | 0.00 | 85 | 1017.2 |
| 20260506041502 | 56 | 282 | 0.9 | 3.5 | 0.00 | 0.00 | 0.00 | 84 | 1017.1 |
| 20260506041002 | 57 | 217 | 0.0 | 2.6 | 0.00 | 0.00 | 0.00 | 84 | 1016.9 |
| 20260506040503 | 57 | 256 | 0.9 | 4.3 | 0.00 | 0.00 | 0.00 | 84 | 1016.9 |
| 20260506040003 | 57 | 280 | 0.9 | 4.3 | 0.00 | 0.00 | 0.00 | 83 | 1016.8 |
| 20260506035502 | 57 | 306 | 0.0 | 5.2 | 0.00 | 0.00 | 0.00 | 83 | 1016.8 |
| 20260506035003 | 57 | 297 | 1.7 | 5.2 | 0.00 | 0.00 | 0.00 | 83 | 1016.7 |
| 20260506034502 | 58 | 296 | 2.6 | 9.6 | 0.00 | 0.00 | 0.00 | 82 | 1016.6 |
| 20260506034003 | 58 | 294 | 2.6 | 9.6 | 0.00 | 0.00 | 0.00 | 82 | 1016.5 |
| 20260506033503 | 58 | 301 | 2.6 | 8.7 | 0.00 | 0.00 | 0.00 | 82 | 1016.5 |
| 20260506033002 | 58 | 286 | 1.7 | 8.7 | 0.00 | 0.00 | 0.00 | 81 | 1016.4 |
| 20260506032503 | 59 | 293 | 1.7 | 8.7 | 0.00 | 0.00 | 0.00 | 81 | 1016.4 |
| 20260506032003 | 59 | 293 | 3.5 | 8.7 | 0.00 | 0.00 | 0.00 | 81 | 1016.3 |
| 20260506031502 | 59 | 286 | 2.6 | 7.8 | 0.00 | 0.00 | 0.00 | 80 | 1016.3 |
| 20260506031002 | 59 | 289 | 0.9 | 3.5 | 0.00 | 0.00 | 0.00 | 80 | 1016.3 |
| 20260506030503 | 60 | 269 | 0.9 | 4.3 | 0.00 | 0.00 | 0.00 | 80 | 1016.2 |